Panther Forest, Arkansas
Current Conditions -  °F | °C
As of 2:53 AM on Monday 24 Nov 2014 (Local Time) from KGLH Reporting Station
Clear Clear  
Wind Chill: 59°   Ceiling: Unl
Heat Index: 59°   Visibility: 10mi
Dew Point: 49°   Wind: 21mph
Humidity: 69%   Direction: 250°WSW
Pressure: 29.62"   Gusts: 28mph
Location:  33.3324°N, 91.3183°W
Report Text: KGLH 240853Z AUTO 25018G24KT 10SM CLR 15/09 A2962 RMK AO2 SLP036 T01500094 53029 $
Loading
Personal Weather Stations






























Interactive Weather Map New forecast layout! Learn more

10-Day Weather Forecast

Advertisements
Track Severe Weather on mobile